Costa Luminosa — ICGU — position and weather

sailwx.info

Track history (hours):
 
Tides and Currents Weather Stations Pressure Air Temp Water Temp Dewpoint Dewpoint Depression Visibility Wind Speed Wind Dir Waves Ship Positions

Costa Luminosa

Last reported at 2018-May-26 09:20 UTC. Time now 2018-May-26 09:46 UTC.
Position N 45°26' E 012°19'.

Length 294 m; draft 8.1 m.

Type: Passenger vessel. MMSI: 247257900.

Date/timePositionNaut miles runAvg speedWind from/ knotsBaromVisibWave heightAir tempDewpointWater temp
2018-May-26 09:20N 45°26' E 012°19'0 0.0
2018-May-26 08:53N 45°26' E 012°19'0 0.0
2018-May-26 08:29N 45°26' E 012°19'0 0.0
2018-May-26 07:59N 45°26' E 012°19'0 0.0
2018-May-26 07:29N 45°26' E 012°19'0 0.0
2018-May-26 06:59N 45°26' E 012°19'1 2.7
2018-May-26 06:30N 45°26' E 012°20'6 6.5
2018-May-26 05:31N 45°24' E 012°29'815.2
2018-May-26 05:00N 45°17' E 012°32'918.7
2018-May-26 04:31N 45°11' E 012°43'917.9
2018-May-26 04:00N 45°04' E 012°51'815.9
2018-May-26 03:30N 44°57' E 012°55'816.1
2018-May-26 03:00N 44°49' E 012°60'816.0
2018-May-26 02:31N 44°42' E 013°04'816.1
2018-May-26 02:01N 44°34' E 013°07'815.8
2018-May-26 01:31N 44°27' E 013°11'815.8
2018-May-26 01:01N 44°19' E 013°14'1015.8
2018-May-26 00:24N 44°13' E 013°24'615.9
2018-May-26 00:00N 44°09' E 013°31'1915.5
2018-May-25 22:46N 43°57' E 013°53'515.2
2018-May-25 22:24N 43°54' E 013°59'615.1
2018-May-25 22:01N 43°51' E 014°05'815.1
2018-May-25 21:30N 43°48' E 014°15'  
2018-May-22 16:42N 37°19' E 023°37'617.9
2018-May-22 16:22N 37°25' E 023°39'617.9
2018-May-22 16:00N 37°31' E 023°41'917.5
2018-May-22 15:30N 37°40' E 023°42'917.3
2018-May-22 15:01N 37°47' E 023°38'714.2
2018-May-22 14:30N 37°54' E 023°36'2 0.3
2018-May-22 05:33N 37°56' E 023°38'0 0.4
2018-May-22 05:29N 37°56' E 023°38'0 0.0
2018-May-22 04:59N 37°56' E 023°38'0 0.0
2018-May-22 04:29N 37°56' E 023°38'0 0.0
2018-May-22 04:00N 37°56' E 023°38'0 0.0
2018-May-22 03:30N 37°56' E 023°38'2 3.6
2018-May-22 03:00N 37°55' E 023°37'714.6
2018-May-22 02:30N 37°49' E 023°41'917.9
2018-May-22 02:00N 37°41' E 023°46'917.9
2018-May-22 01:30N 37°32' E 023°44'918.0
2018-May-22 01:00N 37°23' E 023°41'3118.1
2018-May-21 23:17N 36°53' E 023°30'1218.2
2018-May-21 22:37N 36°42' E 023°24'59912.9
2018-May-20 00:03N 43°43' E 014°06'118.5
2018-May-20 00:00N 43°43' E 014°05'4318.4
2018-May-19 21:41N 44°09' E 013°18'318.5
2018-May-19 21:30N 44°11' E 013°14'1018.1
2018-May-19 20:58N 44°20' E 013°08'918.2
2018-May-19 20:30N 44°28' E 013°04'917.9
2018-May-19 20:00N 44°36' E 013°01'918.1
2018-May-19 19:30N 44°45' E 012°57'918.3
2018-May-19 19:00N 44°53' E 012°52'918.3
2018-May-19 18:30N 45°01' E 012°46'917.5
2018-May-19 18:00N 45°08' E 012°38'816.6
2018-May-19 17:30N 45°14' E 012°30'917.2
2018-May-19 17:00N 45°23' E 012°29'510.1
2018-May-19 16:30N 45°26' E 012°23'2 4.5
2018-May-19 16:01N 45°26' E 012°20'1 2.6
2018-May-19 15:30N 45°26' E 012°19'0 0.0
2018-May-19 14:59N 45°26' E 012°19'0 0.0
2018-May-19 14:29N 45°26' E 012°19'0 0.0
2018-May-19 13:59N 45°26' E 012°19'0 0.0
2018-May-19 13:29N 45°26' E 012°19'0 0.0
2018-May-19 12:59N 45°26' E 012°19'0 0.0
2018-May-19 12:29N 45°26' E 012°19'0 0.0
2018-May-19 11:59N 45°26' E 012°19'0 0.0
2018-May-19 11:29N 45°26' E 012°19'0 0.0
2018-May-19 10:59N 45°26' E 012°19'0 0.0
2018-May-19 10:29N 45°26' E 012°19'0 0.0
2018-May-19 09:59N 45°26' E 012°19'0 0.0
2018-May-19 09:29N 45°26' E 012°19'0 0.0
2018-May-19 08:59N 45°26' E 012°19'0 0.0
2018-May-19 08:26N 45°26' E 012°19'0 0.0
2018-May-19 07:56N 45°26' E 012°19'0 0.0
2018-May-19 07:29N 45°26' E 012°19'0 0.0
2018-May-19 06:59N 45°26' E 012°19'2 3.5
2018-May-19 06:30N 45°26' E 012°21'3 5.4
2018-May-19 06:00N 45°26' E 012°25'611.0
2018-May-19 05:30N 45°23' E 012°31'815.2
2018-May-19 05:00N 45°15' E 012°35'815.9
2018-May-19 04:30N 45°11' E 012°43'815.3
2018-May-19 04:00N 45°05' E 012°50'815.5
2018-May-19 03:30N 44°58' E 012°55'815.4
2018-May-19 03:00N 44°51' E 012°59'815.8
2018-May-19 02:30N 44°43' E 013°03'816.2
2018-May-19 02:00N 44°36' E 013°07'816.1
2018-May-19 01:30N 44°28' E 013°10'816.3
2018-May-19 01:00N 44°20' E 013°14'916.0
2018-May-19 00:25N 44°14' E 013°23'  
Track history (hours):
 
Tides and Currents Weather Stations Pressure Air Temp Water Temp Dewpoint Dewpoint Depression Visibility Wind Speed Wind Dir Waves Ship Positions

Costa Luminosa

Last reported at 2018-May-26 09:20 UTC. Time now 2018-May-26 09:46 UTC.
Position N 45°26' E 012°19'.

Length 294 m; draft 8.1 m.

Type: Passenger vessel. MMSI: 247257900.

Date/timePositionNaut miles runAvg speedWind from/ knotsBaromVisibWave heightAir tempDewpointWater temp
2018-May-26 09:20N 45°26' E 012°19'0 0.0
2018-May-26 08:53N 45°26' E 012°19'0 0.0
2018-May-26 08:29N 45°26' E 012°19'0 0.0
2018-May-26 07:59N 45°26' E 012°19'0 0.0
2018-May-26 07:29N 45°26' E 012°19'0 0.0
2018-May-26 06:59N 45°26' E 012°19'1 2.7
2018-May-26 06:30N 45°26' E 012°20'6 6.5
2018-May-26 05:31N 45°24' E 012°29'815.2
2018-May-26 05:00N 45°17' E 012°32'918.7
2018-May-26 04:31N 45°11' E 012°43'917.9
2018-May-26 04:00N 45°04' E 012°51'815.9
2018-May-26 03:30N 44°57' E 012°55'816.1
2018-May-26 03:00N 44°49' E 012°60'816.0
2018-May-26 02:31N 44°42' E 013°04'816.1
2018-May-26 02:01N 44°34' E 013°07'815.8
2018-May-26 01:31N 44°27' E 013°11'815.8
2018-May-26 01:01N 44°19' E 013°14'1015.8
2018-May-26 00:24N 44°13' E 013°24'615.9
2018-May-26 00:00N 44°09' E 013°31'1915.5
2018-May-25 22:46N 43°57' E 013°53'515.2
2018-May-25 22:24N 43°54' E 013°59'615.1
2018-May-25 22:01N 43°51' E 014°05'815.1
2018-May-25 21:30N 43°48' E 014°15'  
2018-May-22 16:42N 37°19' E 023°37'617.9
2018-May-22 16:22N 37°25' E 023°39'617.9
2018-May-22 16:00N 37°31' E 023°41'917.5
2018-May-22 15:30N 37°40' E 023°42'917.3
2018-May-22 15:01N 37°47' E 023°38'714.2
2018-May-22 14:30N 37°54' E 023°36'2 0.3
2018-May-22 05:33N 37°56' E 023°38'0 0.4
2018-May-22 05:29N 37°56' E 023°38'0 0.0
2018-May-22 04:59N 37°56' E 023°38'0 0.0
2018-May-22 04:29N 37°56' E 023°38'0 0.0
2018-May-22 04:00N 37°56' E 023°38'0 0.0
2018-May-22 03:30N 37°56' E 023°38'2 3.6
2018-May-22 03:00N 37°55' E 023°37'714.6
2018-May-22 02:30N 37°49' E 023°41'917.9
2018-May-22 02:00N 37°41' E 023°46'917.9
2018-May-22 01:30N 37°32' E 023°44'918.0
2018-May-22 01:00N 37°23' E 023°41'3118.1
2018-May-21 23:17N 36°53' E 023°30'1218.2
2018-May-21 22:37N 36°42' E 023°24'59912.9
2018-May-20 00:03N 43°43' E 014°06'118.5
2018-May-20 00:00N 43°43' E 014°05'4318.4
2018-May-19 21:41N 44°09' E 013°18'318.5
2018-May-19 21:30N 44°11' E 013°14'1018.1
2018-May-19 20:58N 44°20' E 013°08'918.2
2018-May-19 20:30N 44°28' E 013°04'917.9
2018-May-19 20:00N 44°36' E 013°01'918.1
2018-May-19 19:30N 44°45' E 012°57'918.3
2018-May-19 19:00N 44°53' E 012°52'918.3
2018-May-19 18:30N 45°01' E 012°46'917.5
2018-May-19 18:00N 45°08' E 012°38'816.6
2018-May-19 17:30N 45°14' E 012°30'917.2
2018-May-19 17:00N 45°23' E 012°29'510.1
2018-May-19 16:30N 45°26' E 012°23'2 4.5
2018-May-19 16:01N 45°26' E 012°20'1 2.6
2018-May-19 15:30N 45°26' E 012°19'0 0.0
2018-May-19 14:59N 45°26' E 012°19'0 0.0
2018-May-19 14:29N 45°26' E 012°19'0 0.0
2018-May-19 13:59N 45°26' E 012°19'0 0.0
2018-May-19 13:29N 45°26' E 012°19'0 0.0
2018-May-19 12:59N 45°26' E 012°19'0 0.0
2018-May-19 12:29N 45°26' E 012°19'0 0.0
2018-May-19 11:59N 45°26' E 012°19'0 0.0
2018-May-19 11:29N 45°26' E 012°19'0 0.0
2018-May-19 10:59N 45°26' E 012°19'0 0.0
2018-May-19 10:29N 45°26' E 012°19'0 0.0
2018-May-19 09:59N 45°26' E 012°19'0 0.0
2018-May-19 09:29N 45°26' E 012°19'0 0.0
2018-May-19 08:59N 45°26' E 012°19'0 0.0
2018-May-19 08:26N 45°26' E 012°19'0 0.0
2018-May-19 07:56N 45°26' E 012°19'0 0.0
2018-May-19 07:29N 45°26' E 012°19'0 0.0
2018-May-19 06:59N 45°26' E 012°19'2 3.5
2018-May-19 06:30N 45°26' E 012°21'3 5.4
2018-May-19 06:00N 45°26' E 012°25'611.0
2018-May-19 05:30N 45°23' E 012°31'815.2
2018-May-19 05:00N 45°15' E 012°35'815.9
2018-May-19 04:30N 45°11' E 012°43'815.3
2018-May-19 04:00N 45°05' E 012°50'815.5
2018-May-19 03:30N 44°58' E 012°55'815.4
2018-May-19 03:00N 44°51' E 012°59'815.8
2018-May-19 02:30N 44°43' E 013°03'816.2
2018-May-19 02:00N 44°36' E 013°07'816.1
2018-May-19 01:30N 44°28' E 013°10'816.3
2018-May-19 01:00N 44°20' E 013°14'916.0
2018-May-19 00:25N 44°14' E 013°23'  

Dump ship's entire track history